createdAt,value
2019-05-07T00:03:59.178Z,13.90
2019-05-07T00:08:00.085Z,15.50
2019-05-07T00:12:02.729Z,16.63
2019-05-07T00:16:03.816Z,15.17
2019-05-07T00:20:05.664Z,15.40
2019-05-07T00:24:08.833Z,13.60
2019-05-07T00:28:12.038Z,16.37
2019-05-07T00:32:12.588Z,17.97
2019-05-07T00:36:15.392Z,13.97
2019-05-07T00:40:18.519Z,15.17
2019-05-07T00:44:21.975Z,15.93
2019-05-07T00:48:23.482Z,16.17
2019-05-07T00:52:24.618Z,14.90
2019-05-07T00:56:25.779Z,15.77
2019-05-07T01:00:27.172Z,12.87
2019-05-07T01:04:28.128Z,15.10
2019-05-07T01:08:28.977Z,14.17
2019-05-07T01:12:29.848Z,13.60
2019-05-07T01:16:32.801Z,13.50
2019-05-07T01:20:33.602Z,14.03
2019-05-07T01:24:34.663Z,12.40
2019-05-07T01:28:54.405Z,15.03
2019-05-07T01:33:00.092Z,14.73
2019-05-07T01:37:02.699Z,14.90
2019-05-07T01:41:03.934Z,14.23
2019-05-07T01:45:05.741Z,14.40
2019-05-07T01:49:06.633Z,16.13
2019-05-07T01:53:07.524Z,14.37
2019-05-07T01:57:08.520Z,15.93
2019-05-07T02:01:09.567Z,16.77
2019-05-07T02:05:15.489Z,15.50
2019-05-07T02:09:34.038Z,14.00
2019-05-07T02:13:35.131Z,16.87
2019-05-07T02:17:36.021Z,16.40
2019-05-07T02:21:36.973Z,15.00
2019-05-07T02:25:37.866Z,14.30
2019-05-07T02:29:38.836Z,15.33
2019-05-07T02:33:43.101Z,15.03
2019-05-07T02:37:50.988Z,15.17
2019-05-07T02:41:47.677Z,14.77
2019-05-07T02:46:19.811Z,12.87
2019-05-07T02:50:05.899Z,13.33
2019-05-07T02:54:08.873Z,14.47
2019-05-07T02:58:09.983Z,13.47
2019-05-07T03:02:13.723Z,13.27
2019-05-07T03:06:13.853Z,13.13
2019-05-07T03:10:14.907Z,12.00
2019-05-07T03:14:16.081Z,12.93
2019-05-07T03:18:19.150Z,14.20
2019-05-07T03:22:22.883Z,13.40
2019-05-07T03:26:24.452Z,15.73
2019-05-07T03:30:46.109Z,12.97
2019-05-07T03:34:49.169Z,14.77
2019-05-07T03:38:50.117Z,13.37
2019-05-07T03:42:53.507Z,12.13
2019-05-07T03:47:02.141Z,11.73
2019-05-07T03:50:58.635Z,14.17
2019-05-07T03:54:59.517Z,17.53
2019-05-07T03:59:03.457Z,14.90
2019-05-07T04:03:03.620Z,13.63
2019-05-07T04:07:04.929Z,12.83
2019-05-07T04:11:05.823Z,12.10
2019-05-07T04:15:07.036Z,11.13
2019-05-07T04:19:07.976Z,12.53
2019-05-07T04:23:08.879Z,12.53
2019-05-07T04:27:13.043Z,13.10
2019-05-07T04:31:14.258Z,12.70
2019-05-07T04:35:17.140Z,13.27
2019-05-07T04:39:18.127Z,15.00
2019-05-07T04:43:18.981Z,14.33
2019-05-07T04:47:36.956Z,12.60
2019-05-07T04:51:24.668Z,14.00
2019-05-07T04:55:25.546Z,13.53
2019-05-07T04:59:26.436Z,14.60
2019-05-07T05:03:28.536Z,14.57
2019-05-07T05:07:29.517Z,14.30
2019-05-07T05:11:33.303Z,15.17
2019-05-07T05:15:33.150Z,18.53
2019-05-07T05:19:34.111Z,15.07
2019-05-07T05:23:41.762Z,16.23
2019-05-07T05:27:43.057Z,14.43
2019-05-07T05:31:44.146Z,15.77
2019-05-07T05:35:45.017Z,15.57
2019-05-07T05:39:45.874Z,14.90
2019-05-07T05:43:48.755Z,15.00
2019-05-07T05:48:03.621Z,16.17
2019-05-07T05:51:57.064Z,14.43
2019-05-07T05:55:59.816Z,14.27
2019-05-07T06:00:05.855Z,14.90
2019-05-07T06:04:22.126Z,15.53
2019-05-07T06:08:25.549Z,17.20
2019-05-07T06:12:32.821Z,18.27
2019-05-07T06:16:38.559Z,16.10
2019-05-07T06:20:42.849Z,18.83
2019-05-07T06:24:56.535Z,18.03
2019-05-07T06:28:57.566Z,19.80
2019-05-07T06:32:58.504Z,22.03
2019-05-07T06:36:59.592Z,22.20
2019-05-07T06:41:02.718Z,21.57
2019-05-07T06:45:22.828Z,24.80
2019-05-07T06:49:24.074Z,19.80
2019-05-07T06:53:27.412Z,20.93
2019-05-07T06:57:29.876Z,23.53
2019-05-07T07:01:32.733Z,21.53
2019-05-07T07:05:35.659Z,22.83
2019-05-07T07:09:44.839Z,24.07
2019-05-07T07:13:45.800Z,22.07
2019-05-07T07:17:46.863Z,24.57
2019-05-07T07:21:48.021Z,29.80
2019-05-07T07:25:49.075Z,28.37
2019-05-07T07:30:07.220Z,28.07
2019-05-07T07:34:08.802Z,24.47
2019-05-07T07:38:28.371Z,23.43
2019-05-07T07:42:29.262Z,23.43
2019-05-07T07:46:30.189Z,19.80
2019-05-07T07:50:33.056Z,21.33
2019-05-07T07:54:33.822Z,22.43
2019-05-07T07:58:36.634Z,21.87
2019-05-07T08:02:39.548Z,22.67
2019-05-07T08:06:41.994Z,20.07
2019-05-07T08:10:43.228Z,20.20
2019-05-07T08:14:44.230Z,23.70
2019-05-07T08:18:46.590Z,25.27
2019-05-07T08:22:47.477Z,24.43
2019-05-07T08:26:48.395Z,26.70
2019-05-07T08:30:52.552Z,23.57
2019-05-07T08:35:04.686Z,22.77
2019-05-07T08:39:06.480Z,20.53
2019-05-07T08:43:07.876Z,22.13
2019-05-07T08:47:12.170Z,22.27
2019-05-07T08:51:13.368Z,22.77
2019-05-07T08:55:14.448Z,21.40
2019-05-07T08:59:15.646Z,22.47
2019-05-07T09:03:22.174Z,23.03
2019-05-07T09:07:22.033Z,20.00
2019-05-07T09:11:23.095Z,21.80
2019-05-07T09:15:24.064Z,23.57
2019-05-07T09:19:25.157Z,22.07
2019-05-07T09:23:26.321Z,21.77
2019-05-07T09:27:29.316Z,20.60
2019-05-07T09:31:52.566Z,21.80
2019-05-07T09:35:53.775Z,19.80
2019-05-07T09:39:54.850Z,19.60
2019-05-07T09:43:56.214Z,20.87
2019-05-07T09:47:57.066Z,19.50
2019-05-07T09:51:58.073Z,18.13
2019-05-07T09:55:59.085Z,19.87
2019-05-07T10:00:02.273Z,20.07
2019-05-07T10:04:03.343Z,21.47
2019-05-07T10:08:04.504Z,19.80
2019-05-07T10:12:07.373Z,19.10
2019-05-07T10:16:08.338Z,19.30
2019-05-07T10:20:19.361Z,19.93
2019-05-07T10:24:13.236Z,17.87
2019-05-07T10:28:14.263Z,16.63
2019-05-07T10:32:15.712Z,16.67
2019-05-07T10:36:16.677Z,17.30
2019-05-07T10:40:18.042Z,17.53
2019-05-07T10:44:22.798Z,17.60
2019-05-07T10:48:25.928Z,17.20
2019-05-07T10:52:27.122Z,15.77
2019-05-07T10:56:28.023Z,14.17
2019-05-07T11:00:29.060Z,13.57
2019-05-07T11:04:40.192Z,13.27
2019-05-07T11:08:33.086Z,14.13
2019-05-07T11:12:34.479Z,13.30
2019-05-07T11:16:37.358Z,14.20
2019-05-07T11:20:47.384Z,12.53
2019-05-07T11:24:42.698Z,13.33
2019-05-07T11:28:43.866Z,11.10
2019-05-07T11:32:44.982Z,10.90
2019-05-07T11:36:46.482Z,10.80
2019-05-07T11:40:47.526Z,11.57
2019-05-07T11:44:49.533Z,9.77
2019-05-07T11:48:52.533Z,8.87
2019-05-07T11:53:01.427Z,9.90
2019-05-07T11:57:02.759Z,12.07
2019-05-07T12:01:05.726Z,10.93
2019-05-07T12:05:06.818Z,10.97
2019-05-07T12:09:07.895Z,9.57
2019-05-07T12:13:08.883Z,10.63
2019-05-07T12:17:11.852Z,10.50
2019-05-07T12:21:20.773Z,10.43
2019-05-07T12:25:17.301Z,10.50
2019-05-07T12:29:18.206Z,9.60
2019-05-07T12:33:35.987Z,8.27
2019-05-07T12:37:37.051Z,7.63
2019-05-07T12:41:38.181Z,9.20
2019-05-07T12:45:41.984Z,8.73
2019-05-07T12:49:42.980Z,9.37
2019-05-07T12:53:48.373Z,8.47
2019-05-07T12:57:49.261Z,9.07
2019-05-07T13:01:52.165Z,7.63
2019-05-07T13:05:53.206Z,7.33
2019-05-07T13:09:54.417Z,7.33
2019-05-07T13:13:55.395Z,8.00
2019-05-07T13:17:56.258Z,7.73
2019-05-07T13:21:57.251Z,5.30
2019-05-07T13:25:58.233Z,5.30
2019-05-07T13:29:59.118Z,7.43
2019-05-07T13:34:02.942Z,5.80
2019-05-07T13:38:06.217Z,5.10
2019-05-07T13:42:09.165Z,4.83
2019-05-07T13:46:12.268Z,5.00
2019-05-07T13:50:13.411Z,4.70
2019-05-07T13:54:14.560Z,5.77
2019-05-07T13:58:15.691Z,5.27
2019-05-07T14:02:18.823Z,5.77
2019-05-07T14:06:37.946Z,4.80
2019-05-07T14:10:38.901Z,4.73
2019-05-07T14:14:39.766Z,4.97
2019-05-07T14:18:40.874Z,3.87
2019-05-07T14:22:42.501Z,5.07
2019-05-07T14:26:43.684Z,5.40
2019-05-07T14:30:44.662Z,4.97
2019-05-07T14:35:02.476Z,4.53
2019-05-07T14:39:06.390Z,4.03
2019-05-07T14:43:09.237Z,4.53
2019-05-07T14:47:10.184Z,5.37
2019-05-07T14:51:12.671Z,5.07
2019-05-07T14:55:14.182Z,4.73
2019-05-07T14:59:15.306Z,4.90
2019-05-07T15:03:17.332Z,3.90
2019-05-07T15:07:18.397Z,4.13
2019-05-07T15:11:19.933Z,4.80
2019-05-07T15:15:21.928Z,4.73
2019-05-07T15:19:23.336Z,4.23
2019-05-07T15:23:26.499Z,4.13
2019-05-07T15:27:27.761Z,3.90
2019-05-07T15:31:47.772Z,4.53
2019-05-07T15:35:48.795Z,4.93
2019-05-07T15:39:49.656Z,3.73
2019-05-07T15:43:52.161Z,4.23
2019-05-07T15:47:55.341Z,3.63
2019-05-07T15:51:58.233Z,4.37
2019-05-07T15:55:59.190Z,4.73
2019-05-07T16:00:04.897Z,5.50
2019-05-07T16:04:18.807Z,4.20
2019-05-07T16:08:12.370Z,4.50
2019-05-07T16:12:15.362Z,5.10
2019-05-07T16:16:16.351Z,4.93
2019-05-07T16:20:17.864Z,3.90
2019-05-07T16:24:18.957Z,5.03
2019-05-07T16:28:21.920Z,4.80
2019-05-07T16:32:24.236Z,4.30
2019-05-07T16:36:25.256Z,4.60
2019-05-07T16:40:26.235Z,4.70
2019-05-07T16:44:27.484Z,4.83
2019-05-07T16:48:28.584Z,4.27
2019-05-07T16:52:29.580Z,4.20
2019-05-07T16:56:30.591Z,3.80
2019-05-07T17:00:33.517Z,5.93
2019-05-07T17:04:34.484Z,6.07
2019-05-07T17:08:49.131Z,6.43
2019-05-07T17:12:52.250Z,5.80
2019-05-07T17:16:53.106Z,6.10
2019-05-07T17:20:56.262Z,5.80
2019-05-07T17:24:57.376Z,5.83
2019-05-07T17:28:58.381Z,5.53
2019-05-07T17:33:01.782Z,5.73
2019-05-07T17:37:02.346Z,6.87
2019-05-07T17:41:10.907Z,6.17
2019-05-07T17:45:06.531Z,7.50
2019-05-07T17:49:07.644Z,6.80
2019-05-07T17:53:08.909Z,5.97
2019-05-07T17:57:12.791Z,8.67
2019-05-07T18:01:13.239Z,7.37
2019-05-07T18:05:14.450Z,6.90
2019-05-07T18:09:15.330Z,6.33
2019-05-07T18:13:16.169Z,6.23
2019-05-07T18:17:34.290Z,5.77
2019-05-07T18:21:35.181Z,5.40
2019-05-07T18:25:38.395Z,7.37
2019-05-07T18:29:39.384Z,8.27
2019-05-07T18:33:48.426Z,9.70
2019-05-07T18:37:52.848Z,8.10
2019-05-07T18:41:54.356Z,12.40
2019-05-07T18:45:55.584Z,9.73
2019-05-07T18:49:56.489Z,12.90
2019-05-07T18:53:57.444Z,9.17
2019-05-07T18:57:58.498Z,14.37
2019-05-07T19:01:59.521Z,21.93
2019-05-07T19:06:02.646Z,9.60
2019-05-07T19:10:04.705Z,9.37
2019-05-07T19:14:05.994Z,9.13
2019-05-07T19:18:07.284Z,8.77
2019-05-07T19:22:08.133Z,9.83
2019-05-07T19:26:09.545Z,12.60
2019-05-07T19:30:12.721Z,10.60
2019-05-07T19:34:14.252Z,11.60
2019-05-07T19:38:15.146Z,11.70
2019-05-07T19:42:16.053Z,11.97
2019-05-07T19:46:17.118Z,12.03
2019-05-07T19:50:18.278Z,13.80
2019-05-07T19:54:19.180Z,13.67
2019-05-07T19:58:22.828Z,11.97
2019-05-07T20:02:43.632Z,10.90
2019-05-07T20:06:44.804Z,13.90
2019-05-07T20:10:51.950Z,13.07
2019-05-07T20:14:53.110Z,13.40
2019-05-07T20:18:54.089Z,11.97
2019-05-07T20:22:55.073Z,11.83
2019-05-07T20:26:56.010Z,15.97
2019-05-07T20:30:56.992Z,14.13
2019-05-07T20:34:57.885Z,13.57
2019-05-07T20:38:58.759Z,13.67
2019-05-07T20:43:01.800Z,12.50
2019-05-07T20:47:02.779Z,11.07
2019-05-07T20:51:03.798Z,10.63
2019-05-07T20:55:10.142Z,10.50
2019-05-07T20:59:12.462Z,10.37
2019-05-07T21:03:19.300Z,9.33
2019-05-07T21:07:22.130Z,9.60
2019-05-07T21:11:23.057Z,10.27
2019-05-07T21:15:23.939Z,9.63
2019-05-07T21:19:24.873Z,11.30
2019-05-07T21:23:25.744Z,11.27
2019-05-07T21:27:26.691Z,11.30
2019-05-07T21:31:27.663Z,11.97
2019-05-07T21:35:28.584Z,12.83
2019-05-07T21:39:29.477Z,11.57
2019-05-07T21:43:32.531Z,11.57
2019-05-07T21:47:33.377Z,10.83
2019-05-07T21:51:34.382Z,11.43
2019-05-07T21:55:41.806Z,11.83
2019-05-07T21:59:43.272Z,11.37
2019-05-07T22:03:46.544Z,11.37
2019-05-07T22:07:47.513Z,12.50
2019-05-07T22:11:48.503Z,12.03
2019-05-07T22:15:49.560Z,14.53
2019-05-07T22:19:52.411Z,12.20
2019-05-07T22:23:53.253Z,11.80
2019-05-07T22:27:54.135Z,11.40
2019-05-07T22:31:56.931Z,11.77
2019-05-07T22:35:57.907Z,10.87
2019-05-07T22:39:58.812Z,11.33
2019-05-07T22:43:59.711Z,12.20
2019-05-07T22:48:02.700Z,12.10
2019-05-07T22:52:03.476Z,13.67
2019-05-07T22:56:04.461Z,10.50
2019-05-07T23:00:06.945Z,11.20
2019-05-07T23:04:07.843Z,12.70
2019-05-07T23:08:08.717Z,13.77
2019-05-07T23:12:09.902Z,13.17
2019-05-07T23:16:12.545Z,13.63
2019-05-07T23:20:13.785Z,12.10
2019-05-07T23:24:14.906Z,11.13
2019-05-07T23:28:15.772Z,10.67
2019-05-07T23:32:16.653Z,11.57
2019-05-07T23:36:17.592Z,10.93
2019-05-07T23:40:22.802Z,11.70
2019-05-07T23:44:23.630Z,11.13
2019-05-07T23:48:24.511Z,11.33
2019-05-07T23:52:25.375Z,11.70
2019-05-07T23:56:26.418Z,11.00
